Decoded Metar for EPSY (SZYMANY in POLAND) (IATA:N/A) | Meteo·Mobile Aviation Weather
aviador You're here:

EPSY Decoded Metar

SZYMANY in POLAND
Report Time2018-11-12 18:00:00
UTC Time2018-11-12 18:16:21
Flight Rules ifr IFR
Wind150° at 06 kt
W.Decomp.*RWY 20: 3.7 kt HW 4.7 kt LCW
W.Rank150° ranks 24
Current wind is below 150° avg. (6.0)
Visibility2800 m
Phenomena:Mist
Clouds:Broken 006 Hf
Expected CloudBase > 400 ft AGL from Temp-Dew spread
Ceiling600 ft
Temp07°C (ISA -7)
Dew Point06°C (93% RH)
AAT3.9°C
QNH1023 hPa
Density Alt-600 ft
Elevation463 ft
Report Wrong Elevation
Raw Report
METAR EPSY 121800Z 15006KT 100V180 2800 BR BKN006 07/06 Q1023=

Extra information for EPSY:More info

Airport Information Weather charts Add Link Nearby Venues Social comments